Terminal Aerodrome Forecast
Issued by NWS

Home | Current Version | Previous Version | Text Only | Print | Product List | Glossary On
Versions: 1 2 3 4 5 6 7 8 9 10 11 12 13 14 15 16 17 18 19 20 21 22 23
000
FTAK31 PANC 241134
TAFADU
TAF
PADU 241134Z 2412/2512 17005KT P6SM VCSH SCT025 OVC040
     FM241800 12020G30KT 5SM -RA BR BKN025
     FM242200 12024G36KT 3SM -RA BR OVC012
      TEMPO 2503/2507 P6SM -SHRA SCT025 OVC040=

USA.gov is the U.S. government's official web portal to all federal, state and local government web resources and services.